Thomson Dream — 9HA2381 — position and weather

sailwx.info

Track history (hours):
 
Tides and Currents Weather Stations Pressure Air Temp Water Temp Dewpoint Dewpoint Depression Visibility Wind Speed Wind Dir Waves Ship Positions

Thomson Dream

Last reported at 2016-Sep-25 17:33 UTC. Time now 2016-Sep-30 03:19 UTC.
Position N 37°49' E 023°36'.

Length 243 m; draft 7.6 m.

Type: Ship. MMSI: 248480975.

Date/timePositionNaut miles runAvg speedWind from/ knotsBaromVisibWave heightAir tempDewpointWater temp
2016-Sep-25 17:33N 37°49' E 023°36'7 7.3
2016-Sep-25 16:33N 37°56' E 023°38'0 0.0
2016-Sep-25 15:31N 37°56' E 023°38'0 0.0
2016-Sep-25 14:31N 37°56' E 023°38'0 0.0
2016-Sep-25 12:31N 37°56' E 023°38'0 0.0
2016-Sep-25 11:31N 37°56' E 023°38'0 0.0
2016-Sep-25 10:31N 37°56' E 023°38'0 0.0
2016-Sep-25 09:31N 37°56' E 023°38'4 2.1
2016-Sep-25 07:34N 37°52' E 023°38'4214.0
2016-Sep-25 04:32N 37°10' E 023°38'  
2016-Sep-22 12:33N 42°25' E 018°46'5 0.6
2016-Sep-22 04:33N 42°28' E 018°41'6 5.8
2016-Sep-22 03:33N 42°26' E 018°34'9 3.0
2016-Sep-22 00:33N 42°18' E 018°30'1 0.7
2016-Sep-21 23:33N 42°18' E 018°31'0 0.5
2016-Sep-21 22:33N 42°19' E 018°31'2 0.6
2016-Sep-21 19:34N 42°18' E 018°29'269 5.6
2016-Sep-19 19:33N 44°50' E 013°23'1918.7
2016-Sep-19 18:34N 45°06' E 013°08'3417.0
2016-Sep-19 16:33N 45°24' E 012°28'7 3.2
2016-Sep-19 14:25N 45°26' E 012°18'0 0.0
2016-Sep-19 13:31N 45°26' E 012°18'0 0.0
2016-Sep-19 12:28N 45°26' E 012°18'0 0.0
2016-Sep-19 11:31N 45°26' E 012°18'0 0.0
2016-Sep-19 09:31N 45°26' E 012°18'0 0.0
2016-Sep-19 07:28N 45°26' E 012°18'0 0.0
2016-Sep-19 06:31N 45°26' E 012°18'13 4.3
2016-Sep-19 03:33N 45°21' E 012°35'7 6.9
2016-Sep-19 02:34N 45°24' E 012°44'11 5.6
2016-Sep-19 00:33N 45°27' E 012°59'32 6.2
2016-Sep-18 19:23N 45°33' E 013°44'0 0.0
2016-Sep-18 15:32N 45°33' E 013°44'0 0.0
2016-Sep-18 14:29N 45°33' E 013°44'0 0.0
2016-Sep-18 10:29N 45°33' E 013°44'0 0.0
2016-Sep-18 09:32N 45°33' E 013°44'26 3.7
2016-Sep-18 02:34N 45°20' E 013°12'1212.1
2016-Sep-18 01:34N 45°08' E 013°15'1212.4
2016-Sep-18 00:33N 44°56' E 013°21'2613.0
2016-Sep-17 22:33N 44°35' E 013°42'1211.8
2016-Sep-17 21:33N 44°26' E 013°52'1212.1
2016-Sep-17 20:33N 44°16' E 014°01'1712.0
2016-Sep-17 19:11N 44°02' E 014°14'  
Track history (hours):
 
Tides and Currents Weather Stations Pressure Air Temp Water Temp Dewpoint Dewpoint Depression Visibility Wind Speed Wind Dir Waves Ship Positions

Thomson Dream

Last reported at 2016-Sep-25 17:33 UTC. Time now 2016-Sep-30 03:19 UTC.
Position N 37°49' E 023°36'.

Length 243 m; draft 7.6 m.

Type: Ship. MMSI: 248480975.

Date/timePositionNaut miles runAvg speedWind from/ knotsBaromVisibWave heightAir tempDewpointWater temp
2016-Sep-25 17:33N 37°49' E 023°36'7 7.3
2016-Sep-25 16:33N 37°56' E 023°38'0 0.0
2016-Sep-25 15:31N 37°56' E 023°38'0 0.0
2016-Sep-25 14:31N 37°56' E 023°38'0 0.0
2016-Sep-25 12:31N 37°56' E 023°38'0 0.0
2016-Sep-25 11:31N 37°56' E 023°38'0 0.0
2016-Sep-25 10:31N 37°56' E 023°38'0 0.0
2016-Sep-25 09:31N 37°56' E 023°38'4 2.1
2016-Sep-25 07:34N 37°52' E 023°38'4214.0
2016-Sep-25 04:32N 37°10' E 023°38'  
2016-Sep-22 12:33N 42°25' E 018°46'5 0.6
2016-Sep-22 04:33N 42°28' E 018°41'6 5.8
2016-Sep-22 03:33N 42°26' E 018°34'9 3.0
2016-Sep-22 00:33N 42°18' E 018°30'1 0.7
2016-Sep-21 23:33N 42°18' E 018°31'0 0.5
2016-Sep-21 22:33N 42°19' E 018°31'2 0.6
2016-Sep-21 19:34N 42°18' E 018°29'269 5.6
2016-Sep-19 19:33N 44°50' E 013°23'1918.7
2016-Sep-19 18:34N 45°06' E 013°08'3417.0
2016-Sep-19 16:33N 45°24' E 012°28'7 3.2
2016-Sep-19 14:25N 45°26' E 012°18'0 0.0
2016-Sep-19 13:31N 45°26' E 012°18'0 0.0
2016-Sep-19 12:28N 45°26' E 012°18'0 0.0
2016-Sep-19 11:31N 45°26' E 012°18'0 0.0
2016-Sep-19 09:31N 45°26' E 012°18'0 0.0
2016-Sep-19 07:28N 45°26' E 012°18'0 0.0
2016-Sep-19 06:31N 45°26' E 012°18'13 4.3
2016-Sep-19 03:33N 45°21' E 012°35'7 6.9
2016-Sep-19 02:34N 45°24' E 012°44'11 5.6
2016-Sep-19 00:33N 45°27' E 012°59'32 6.2
2016-Sep-18 19:23N 45°33' E 013°44'0 0.0
2016-Sep-18 15:32N 45°33' E 013°44'0 0.0
2016-Sep-18 14:29N 45°33' E 013°44'0 0.0
2016-Sep-18 10:29N 45°33' E 013°44'0 0.0
2016-Sep-18 09:32N 45°33' E 013°44'26 3.7
2016-Sep-18 02:34N 45°20' E 013°12'1212.1
2016-Sep-18 01:34N 45°08' E 013°15'1212.4
2016-Sep-18 00:33N 44°56' E 013°21'2613.0
2016-Sep-17 22:33N 44°35' E 013°42'1211.8
2016-Sep-17 21:33N 44°26' E 013°52'1212.1
2016-Sep-17 20:33N 44°16' E 014°01'1712.0
2016-Sep-17 19:11N 44°02' E 014°14'  

Dump ship's entire track history